sensor_id;sensor_type;location;lat;lon;timestamp;pressure;altitude;pressure_sealevel;temperature;humidity
13124;BME280;6627;50.920;12.050;2022-11-13T00:01:08;99838.28;;;7.29;67.98
13124;BME280;6627;50.920;12.050;2022-11-13T00:03:36;99753.03;;;6.52;68.67
13124;BME280;6627;50.920;12.050;2022-11-13T00:06:04;99781.28;;;6.32;70.32
13124;BME280;6627;50.920;12.050;2022-11-13T00:08:33;99829.78;;;6.76;70.71
13124;BME280;6627;50.920;12.050;2022-11-13T00:11:04;99817.69;;;6.96;69.73
13124;BME280;6627;50.920;12.050;2022-11-13T00:13:32;99816.22;;;6.88;69.92
13124;BME280;6627;50.920;12.050;2022-11-13T00:16:02;99790.13;;;6.89;68.96
13124;BME280;6627;50.920;12.050;2022-11-13T00:18:33;99808.03;;;7.00;69.26
13124;BME280;6627;50.920;12.050;2022-11-13T00:21:05;99810.41;;;7.18;68.53
13124;BME280;6627;50.920;12.050;2022-11-13T00:23:35;99781.59;;;6.97;67.97
13124;BME280;6627;50.920;12.050;2022-11-13T00:26:05;99790.41;;;7.14;68.17
13124;BME280;6627;50.920;12.050;2022-11-13T00:28:33;99792.72;;;7.27;67.54
13124;BME280;6627;50.920;12.050;2022-11-13T00:31:02;99782.63;;;6.91;68.11
13124;BME280;6627;50.920;12.050;2022-11-13T00:33:30;99790.69;;;6.91;68.25
13124;BME280;6627;50.920;12.050;2022-11-13T00:36:02;99753.09;;;6.57;68.08
13124;BME280;6627;50.920;12.050;2022-11-13T00:38:30;99863.53;;;7.72;67.90
13124;BME280;6627;50.920;12.050;2022-11-13T00:40:59;99848.16;;;7.99;66.08
13124;BME280;6627;50.920;12.050;2022-11-13T00:43:28;99831.84;;;8.16;64.51
13124;BME280;6627;50.920;12.050;2022-11-13T00:45:55;99718.41;;;7.04;64.69
13124;BME280;6627;50.920;12.050;2022-11-13T00:48:23;99811.34;;;7.56;65.58
13124;BME280;6627;50.920;12.050;2022-11-13T00:50:51;99823.19;;;8.14;64.14
13124;BME280;6627;50.920;12.050;2022-11-13T00:53:19;99751.91;;;7.73;63.31
13124;BME280;6627;50.920;12.050;2022-11-13T00:55:47;99810.91;;;8.28;62.99
13124;BME280;6627;50.920;12.050;2022-11-13T00:58:17;99702.75;;;7.28;63.62
13124;BME280;6627;50.920;12.050;2022-11-13T01:00:46;99798.34;;;8.12;63.31
13124;BME280;6627;50.920;12.050;2022-11-13T01:03:16;99809.22;;;8.22;63.09
13124;BME280;6627;50.920;12.050;2022-11-13T01:05:46;99812.78;;;8.28;62.96
13124;BME280;6627;50.920;12.050;2022-11-13T01:08:14;99765.53;;;8.25;62.01
13124;BME280;6627;50.920;12.050;2022-11-13T01:10:46;99689.63;;;7.37;63.10
13124;BME280;6627;50.920;12.050;2022-11-13T01:13:18;99689.06;;;7.08;64.05
13124;BME280;6627;50.920;12.050;2022-11-13T01:15:46;99751.78;;;7.90;63.25
13124;BME280;6627;50.920;12.050;2022-11-13T01:18:13;99769.84;;;8.26;62.41
13124;BME280;6627;50.920;12.050;2022-11-13T01:20:41;99776.72;;;8.39;61.70
13124;BME280;6627;50.920;12.050;2022-11-13T01:23:09;99708.03;;;7.82;62.10
13124;BME280;6627;50.920;12.050;2022-11-13T01:25:36;99673.25;;;7.17;63.55
13124;BME280;6627;50.920;12.050;2022-11-13T01:28:05;99712.75;;;7.65;63.08
13124;BME280;6627;50.920;12.050;2022-11-13T01:30:34;99645.81;;;6.93;63.84
13124;BME280;6627;50.920;12.050;2022-11-13T01:33:01;99638.06;;;6.69;64.16
13124;BME280;6627;50.920;12.050;2022-11-13T01:35:29;99669.78;;;6.67;64.99
13124;BME280;6627;50.920;12.050;2022-11-13T01:37:58;99686.16;;;7.15;63.75
13124;BME280;6627;50.920;12.050;2022-11-13T01:40:25;99685.94;;;7.48;63.10
13124;BME280;6627;50.920;12.050;2022-11-13T01:42:53;99605.34;;;6.55;64.57
13124;BME280;6627;50.920;12.050;2022-11-13T01:46:15;99671.28;;;7.07;63.83
13124;BME280;6627;50.920;12.050;2022-11-13T01:48:47;99650.72;;;6.69;64.57
13124;BME280;6627;50.920;12.050;2022-11-13T01:51:25;99596.63;;;6.21;64.51
13124;BME280;6627;50.920;12.050;2022-11-13T01:53:54;99569.91;;;5.93;65.46
13124;BME280;6627;50.920;12.050;2022-11-13T01:56:24;99585.16;;;5.70;66.82
13124;BME280;6627;50.920;12.050;2022-11-13T01:58:57;99552.84;;;4.93;68.54
13124;BME280;6627;50.920;12.050;2022-11-13T02:01:29;99533.63;;;4.67;69.35
13124;BME280;6627;50.920;12.050;2022-11-13T02:03:56;99585.72;;;5.17;68.99
13124;BME280;6627;50.920;12.050;2022-11-13T02:06:27;99574.81;;;5.06;69.32
13124;BME280;6627;50.920;12.050;2022-11-13T02:08:55;99572.22;;;5.12;68.50
13124;BME280;6627;50.920;12.050;2022-11-13T02:11:23;99577.59;;;5.28;68.85
13124;BME280;6627;50.920;12.050;2022-11-13T02:13:51;99506.16;;;4.60;69.28
13124;BME280;6627;50.920;12.050;2022-11-13T02:16:21;99511.50;;;4.60;69.62
13124;BME280;6627;50.920;12.050;2022-11-13T02:18:51;99510.69;;;4.43;70.60
13124;BME280;6627;50.920;12.050;2022-11-13T02:21:30;99513.47;;;4.48;70.30
13124;BME280;6627;50.920;12.050;2022-11-13T02:24:15;99545.09;;;4.63;71.26
13124;BME280;6627;50.920;12.050;2022-11-13T02:26:49;99536.41;;;4.72;70.41
13124;BME280;6627;50.920;12.050;2022-11-13T02:29:18;99517.28;;;4.52;70.72
13124;BME280;6627;50.920;12.050;2022-11-13T02:31:46;99491.81;;;4.21;71.17
13124;BME280;6627;50.920;12.050;2022-11-13T02:34:21;99497.28;;;4.14;71.78
13124;BME280;6627;50.920;12.050;2022-11-13T02:36:49;99518.38;;;4.22;72.65
13124;BME280;6627;50.920;12.050;2022-11-13T02:39:19;99525.53;;;4.34;72.47
13124;BME280;6627;50.920;12.050;2022-11-13T02:41:46;99582.63;;;5.08;70.91
13124;BME280;6627;50.920;12.050;2022-11-13T02:44:14;99575.72;;;5.29;70.00
13124;BME280;6627;50.920;12.050;2022-11-13T02:46:43;99559.50;;;5.41;68.75
13124;BME280;6627;50.920;12.050;2022-11-13T02:49:10;99512.19;;;4.67;69.63
13124;BME280;6627;50.920;12.050;2022-11-13T02:51:38;99495.84;;;4.52;69.50
13124;BME280;6627;50.920;12.050;2022-11-13T02:54:06;99492.31;;;4.35;69.75
13124;BME280;6627;50.920;12.050;2022-11-13T02:56:34;99498.16;;;4.32;70.29
13124;BME280;6627;50.920;12.050;2022-11-13T02:59:02;99498.63;;;4.28;70.25
13124;BME280;6627;50.920;12.050;2022-11-13T03:01:29;99471.06;;;3.88;71.00
13124;BME280;6627;50.920;12.050;2022-11-13T03:03:56;99481.78;;;3.88;71.74
13124;BME280;6627;50.920;12.050;2022-11-13T03:06:24;99483.91;;;3.86;72.61
13124;BME280;6627;50.920;12.050;2022-11-13T03:08:52;99524.88;;;4.26;72.45
13124;BME280;6627;50.920;12.050;2022-11-13T03:11:19;99525.22;;;4.47;71.74
13124;BME280;6627;50.920;12.050;2022-11-13T03:13:48;99486.41;;;4.04;71.61
13124;BME280;6627;50.920;12.050;2022-11-13T03:16:16;99476.44;;;3.88;72.21
13124;BME280;6627;50.920;12.050;2022-11-13T03:18:44;99492.22;;;4.01;72.61
13124;BME280;6627;50.920;12.050;2022-11-13T03:21:13;99507.25;;;4.30;72.23
13124;BME280;6627;50.920;12.050;2022-11-13T03:23:42;99500.84;;;4.03;72.86
13124;BME280;6627;50.920;12.050;2022-11-13T03:26:15;99518.84;;;4.19;73.37
13124;BME280;6627;50.920;12.050;2022-11-13T03:28:42;99534.94;;;4.48;72.66
13124;BME280;6627;50.920;12.050;2022-11-13T03:31:11;99560.91;;;4.93;71.60
13124;BME280;6627;50.920;12.050;2022-11-13T03:33:39;99530.88;;;4.62;71.12
13124;BME280;6627;50.920;12.050;2022-11-13T03:36:08;99585.38;;;5.30;71.11
13124;BME280;6627;50.920;12.050;2022-11-13T03:38:36;99586.25;;;5.52;70.43
13124;BME280;6627;50.920;12.050;2022-11-13T03:41:04;99555.63;;;5.31;69.68
13124;BME280;6627;50.920;12.050;2022-11-13T03:43:31;99540.66;;;5.02;70.27
13124;BME280;6627;50.920;12.050;2022-11-13T03:45:58;99596.13;;;5.47;70.48
13124;BME280;6627;50.920;12.050;2022-11-13T03:48:27;99583.56;;;5.36;70.39
13124;BME280;6627;50.920;12.050;2022-11-13T03:50:55;99596.13;;;5.47;70.83
13124;BME280;6627;50.920;12.050;2022-11-13T03:53:22;99592.03;;;5.61;69.50
13124;BME280;6627;50.920;12.050;2022-11-13T03:55:50;99609.56;;;5.86;69.27
13124;BME280;6627;50.920;12.050;2022-11-13T03:58:18;99603.09;;;5.48;69.77
13124;BME280;6627;50.920;12.050;2022-11-13T04:00:46;99634.75;;;5.79;69.71
13124;BME280;6627;50.920;12.050;2022-11-13T04:03:14;99579.88;;;5.20;69.49
13124;BME280;6627;50.920;12.050;2022-11-13T04:05:42;99592.00;;;5.22;69.60
13124;BME280;6627;50.920;12.050;2022-11-13T04:08:10;99543.50;;;4.78;69.49
13124;BME280;6627;50.920;12.050;2022-11-13T04:10:37;99593.94;;;5.10;70.09
13124;BME280;6627;50.920;12.050;2022-11-13T04:13:05;99571.72;;;4.98;70.05
13124;BME280;6627;50.920;12.050;2022-11-13T04:15:32;99571.41;;;5.11;69.45
13124;BME280;6627;50.920;12.050;2022-11-13T04:17:59;99549.91;;;4.77;69.69
13124;BME280;6627;50.920;12.050;2022-11-13T04:20:27;99544.53;;;4.77;69.62
13124;BME280;6627;50.920;12.050;2022-11-13T04:22:57;99571.66;;;4.93;70.05
13124;BME280;6627;50.920;12.050;2022-11-13T04:25:25;99576.44;;;5.24;69.63
13124;BME280;6627;50.920;12.050;2022-11-13T04:27:53;99588.16;;;5.18;69.32
13124;BME280;6627;50.920;12.050;2022-11-13T04:30:21;99517.38;;;4.57;69.77
13124;BME280;6627;50.920;12.050;2022-11-13T04:32:48;99558.69;;;4.73;70.11
13124;BME280;6627;50.920;12.050;2022-11-13T04:35:15;99553.00;;;4.69;70.35
13124;BME280;6627;50.920;12.050;2022-11-13T04:37:43;99582.81;;;5.18;69.40
13124;BME280;6627;50.920;12.050;2022-11-13T04:40:12;99527.13;;;4.63;69.91
13124;BME280;6627;50.920;12.050;2022-11-13T04:42:40;99699.53;;;6.34;69.39
13124;BME280;6627;50.920;12.050;2022-11-13T04:45:17;99660.38;;;6.92;65.57
13124;BME280;6627;50.920;12.050;2022-11-13T04:47:45;99555.47;;;5.99;64.70
13124;BME280;6627;50.920;12.050;2022-11-13T04:50:14;99490.34;;;5.53;65.09
13124;BME280;6627;50.920;12.050;2022-11-13T04:52:42;99651.84;;;7.00;63.63
13124;BME280;6627;50.920;12.050;2022-11-13T04:55:12;99534.34;;;6.35;62.85
13124;BME280;6627;50.920;12.050;2022-11-13T04:57:40;99548.28;;;5.88;64.66
13124;BME280;6627;50.920;12.050;2022-11-13T05:00:09;99552.91;;;5.70;65.57
13124;BME280;6627;50.920;12.050;2022-11-13T05:02:38;99580.38;;;6.11;64.09
13124;BME280;6627;50.920;12.050;2022-11-13T05:05:07;99566.59;;;6.07;64.00
13124;BME280;6627;50.920;12.050;2022-11-13T05:07:35;99547.41;;;5.99;63.84
13124;BME280;6627;50.920;12.050;2022-11-13T05:10:04;99466.91;;;5.26;64.83
13124;BME280;6627;50.920;12.050;2022-11-13T05:12:33;99529.84;;;5.52;64.90
13124;BME280;6627;50.920;12.050;2022-11-13T05:15:00;99545.44;;;5.72;64.62
13124;BME280;6627;50.920;12.050;2022-11-13T05:17:28;99541.38;;;5.53;64.86
13124;BME280;6627;50.920;12.050;2022-11-13T05:19:55;99527.97;;;5.75;64.21
13124;BME280;6627;50.920;12.050;2022-11-13T05:22:23;99477.44;;;5.11;65.02
13124;BME280;6627;50.920;12.050;2022-11-13T05:24:50;99506.63;;;5.24;65.66
13124;BME280;6627;50.920;12.050;2022-11-13T05:27:18;99503.88;;;5.19;66.00
13124;BME280;6627;50.920;12.050;2022-11-13T05:29:46;99479.81;;;4.91;66.37
13124;BME280;6627;50.920;12.050;2022-11-13T05:32:14;99466.72;;;4.77;65.80
13124;BME280;6627;50.920;12.050;2022-11-13T05:34:41;99434.47;;;4.39;66.76
13124;BME280;6627;50.920;12.050;2022-11-13T05:37:08;99471.59;;;4.64;67.41
13124;BME280;6627;50.920;12.050;2022-11-13T05:39:35;99461.44;;;4.83;66.89
13124;BME280;6627;50.920;12.050;2022-11-13T05:42:03;99461.34;;;4.77;67.00
13124;BME280;6627;50.920;12.050;2022-11-13T05:44:31;99465.91;;;4.94;66.36
13124;BME280;6627;50.920;12.050;2022-11-13T05:47:00;99496.63;;;5.20;66.84
13124;BME280;6627;50.920;12.050;2022-11-13T05:49:29;99431.44;;;4.86;66.35
13124;BME280;6627;50.920;12.050;2022-11-13T05:51:56;99442.09;;;4.64;67.11
13124;BME280;6627;50.920;12.050;2022-11-13T05:54:23;99456.50;;;4.74;67.24
13124;BME280;6627;50.920;12.050;2022-11-13T05:56:51;99462.25;;;4.83;67.33
13124;BME280;6627;50.920;12.050;2022-11-13T05:59:18;99459.25;;;4.63;67.65
13124;BME280;6627;50.920;12.050;2022-11-13T06:01:45;99469.50;;;4.83;67.38
13124;BME280;6627;50.920;12.050;2022-11-13T06:04:14;99526.50;;;5.23;67.87
13124;BME280;6627;50.920;12.050;2022-11-13T06:06:41;99504.34;;;5.16;67.34
13124;BME280;6627;50.920;12.050;2022-11-13T06:09:14;99457.19;;;4.87;66.83
13124;BME280;6627;50.920;12.050;2022-11-13T06:11:42;99490.84;;;5.11;67.64
13124;BME280;6627;50.920;12.050;2022-11-13T06:14:10;99504.09;;;5.56;65.93
13124;BME280;6627;50.920;12.050;2022-11-13T06:16:38;99460.78;;;5.31;66.00
13124;BME280;6627;50.920;12.050;2022-11-13T06:19:08;99464.84;;;5.34;65.72
13124;BME280;6627;50.920;12.050;2022-11-13T06:21:39;99437.13;;;5.28;64.95
13124;BME280;6627;50.920;12.050;2022-11-13T06:24:11;99424.47;;;5.06;65.00
13124;BME280;6627;50.920;12.050;2022-11-13T06:26:38;99407.94;;;4.59;65.97
13124;BME280;6627;50.920;12.050;2022-11-13T06:29:10;99446.31;;;4.76;66.63
13124;BME280;6627;50.920;12.050;2022-11-13T06:31:39;99422.44;;;4.58;66.31
13124;BME280;6627;50.920;12.050;2022-11-13T06:34:07;99477.22;;;5.35;65.46
13124;BME280;6627;50.920;12.050;2022-11-13T06:36:37;99415.38;;;4.91;64.91
13124;BME280;6627;50.920;12.050;2022-11-13T06:39:06;99476.53;;;5.22;65.79
13124;BME280;6627;50.920;12.050;2022-11-13T06:41:34;99450.50;;;5.23;64.50
13124;BME280;6627;50.920;12.050;2022-11-13T06:44:01;99460.34;;;5.39;63.97
13124;BME280;6627;50.920;12.050;2022-11-13T06:46:29;99463.47;;;5.31;64.52
13124;BME280;6627;50.920;12.050;2022-11-13T06:48:57;99448.22;;;5.15;63.99
13124;BME280;6627;50.920;12.050;2022-11-13T06:51:28;99402.25;;;4.72;65.11
13124;BME280;6627;50.920;12.050;2022-11-13T06:53:57;99436.56;;;4.70;65.37
13124;BME280;6627;50.920;12.050;2022-11-13T06:56:25;99440.94;;;4.76;65.45
13124;BME280;6627;50.920;12.050;2022-11-13T06:58:53;99407.16;;;4.59;65.21
13124;BME280;6627;50.920;12.050;2022-11-13T07:01:24;99477.69;;;5.10;65.48
13124;BME280;6627;50.920;12.050;2022-11-13T07:03:52;99518.03;;;5.75;63.79
13124;BME280;6627;50.920;12.050;2022-11-13T07:06:22;99399.81;;;4.88;63.85
13124;BME280;6627;50.920;12.050;2022-11-13T07:08:50;99445.63;;;5.03;65.17
13124;BME280;6627;50.920;12.050;2022-11-13T07:11:22;99492.16;;;5.69;64.08
13124;BME280;6627;50.920;12.050;2022-11-13T07:13:50;99488.56;;;5.80;63.48
13124;BME280;6627;50.920;12.050;2022-11-13T07:16:18;99458.84;;;5.70;62.83
13124;BME280;6627;50.920;12.050;2022-11-13T07:18:51;99440.94;;;5.54;62.82
13124;BME280;6627;50.920;12.050;2022-11-13T07:21:20;99420.25;;;5.32;63.67
13124;BME280;6627;50.920;12.050;2022-11-13T07:23:49;99445.69;;;5.47;63.19
13124;BME280;6627;50.920;12.050;2022-11-13T07:26:18;99464.81;;;5.72;63.04
13124;BME280;6627;50.920;12.050;2022-11-13T07:28:47;99438.16;;;5.49;63.20
13124;BME280;6627;50.920;12.050;2022-11-13T07:31:16;99425.38;;;5.34;63.84
13124;BME280;6627;50.920;12.050;2022-11-13T07:33:46;99469.91;;;5.52;63.96
13124;BME280;6627;50.920;12.050;2022-11-13T07:36:15;99470.28;;;5.82;62.94
13124;BME280;6627;50.920;12.050;2022-11-13T07:38:43;99435.03;;;5.57;63.68
13124;BME280;6627;50.920;12.050;2022-11-13T07:41:10;99471.41;;;5.87;63.19
13124;BME280;6627;50.920;12.050;2022-11-13T07:43:40;99457.91;;;5.81;63.05
13124;BME280;6627;50.920;12.050;2022-11-13T07:46:07;99420.81;;;5.35;64.01
13124;BME280;6627;50.920;12.050;2022-11-13T07:48:34;99472.66;;;5.57;64.51
13124;BME280;6627;50.920;12.050;2022-11-13T07:51:03;99471.44;;;5.65;64.21
13124;BME280;6627;50.920;12.050;2022-11-13T07:53:30;99471.03;;;5.56;64.57
13124;BME280;6627;50.920;12.050;2022-11-13T07:56:00;99505.19;;;5.77;64.40
13124;BME280;6627;50.920;12.050;2022-11-13T07:58:28;99497.31;;;5.93;64.27
13124;BME280;6627;50.920;12.050;2022-11-13T08:01:02;99566.53;;;6.78;63.24
13124;BME280;6627;50.920;12.050;2022-11-13T08:03:31;99537.94;;;6.72;62.61
13124;BME280;6627;50.920;12.050;2022-11-13T08:06:00;99547.09;;;6.44;63.11
13124;BME280;6627;50.920;12.050;2022-11-13T08:08:29;99543.72;;;6.59;63.24
13124;BME280;6627;50.920;12.050;2022-11-13T08:10:57;99615.03;;;7.48;61.89
13124;BME280;6627;50.920;12.050;2022-11-13T08:13:24;99588.03;;;7.38;61.34
13124;BME280;6627;50.920;12.050;2022-11-13T08:15:51;99574.97;;;7.19;61.97
13124;BME280;6627;50.920;12.050;2022-11-13T08:18:20;99537.69;;;6.74;62.68
13124;BME280;6627;50.920;12.050;2022-11-13T08:20:47;99591.63;;;7.16;62.53
13124;BME280;6627;50.920;12.050;2022-11-13T08:23:15;99590.25;;;7.08;62.99
13124;BME280;6627;50.920;12.050;2022-11-13T08:25:42;99615.56;;;7.45;62.59
13124;BME280;6627;50.920;12.050;2022-11-13T08:28:10;99616.59;;;7.39;62.98
13124;BME280;6627;50.920;12.050;2022-11-13T08:30:39;99613.34;;;7.37;63.36
13124;BME280;6627;50.920;12.050;2022-11-13T08:33:09;99589.53;;;7.23;63.13
13124;BME280;6627;50.920;12.050;2022-11-13T08:35:37;99599.66;;;7.11;63.50
13124;BME280;6627;50.920;12.050;2022-11-13T08:38:07;99610.47;;;7.16;64.01
13124;BME280;6627;50.920;12.050;2022-11-13T08:40:35;99592.66;;;7.10;64.27
13124;BME280;6627;50.920;12.050;2022-11-13T08:43:03;99677.47;;;8.14;63.87
13124;BME280;6627;50.920;12.050;2022-11-13T08:45:31;99660.13;;;8.47;62.18
13124;BME280;6627;50.920;12.050;2022-11-13T08:47:59;99623.50;;;8.14;62.03
13124;BME280;6627;50.920;12.050;2022-11-13T08:50:27;99608.75;;;7.74;62.82
13124;BME280;6627;50.920;12.050;2022-11-13T08:52:57;99652.03;;;7.95;63.73
13124;BME280;6627;50.920;12.050;2022-11-13T08:55:26;99640.72;;;7.98;62.99
13124;BME280;6627;50.920;12.050;2022-11-13T08:57:57;99659.13;;;8.06;63.39
13124;BME280;6627;50.920;12.050;2022-11-13T09:00:25;99623.97;;;7.96;62.55
13124;BME280;6627;50.920;12.050;2022-11-13T09:02:54;99683.25;;;8.28;63.14
13124;BME280;6627;50.920;12.050;2022-11-13T09:05:22;99675.06;;;8.75;61.86
13124;BME280;6627;50.920;12.050;2022-11-13T09:07:50;99654.47;;;8.54;61.74
13124;BME280;6627;50.920;12.050;2022-11-13T09:10:22;99679.34;;;8.56;62.40
13124;BME280;6627;50.920;12.050;2022-11-13T09:12:56;99728.13;;;9.07;61.91
13124;BME280;6627;50.920;12.050;2022-11-13T09:15:24;99672.38;;;8.80;61.34
13124;BME280;6627;50.920;12.050;2022-11-13T09:17:55;99647.94;;;8.40;62.39
13124;BME280;6627;50.920;12.050;2022-11-13T09:20:24;99723.81;;;9.11;61.85
13124;BME280;6627;50.920;12.050;2022-11-13T09:22:57;99683.72;;;8.72;62.06
13124;BME280;6627;50.920;12.050;2022-11-13T09:25:26;99729.22;;;9.16;61.64
13124;BME280;6627;50.920;12.050;2022-11-13T09:27:56;99673.69;;;8.63;62.19
13124;BME280;6627;50.920;12.050;2022-11-13T09:30:24;99733.59;;;9.38;61.21
13124;BME280;6627;50.920;12.050;2022-11-13T09:32:53;99713.03;;;9.21;61.06
13124;BME280;6627;50.920;12.050;2022-11-13T09:35:21;99708.41;;;9.12;61.54
13124;BME280;6627;50.920;12.050;2022-11-13T09:38:00;99770.41;;;9.64;61.59
13124;BME280;6627;50.920;12.050;2022-11-13T09:40:35;99782.84;;;9.96;61.12
13124;BME280;6627;50.920;12.050;2022-11-13T09:43:09;99741.16;;;9.35;62.48
13124;BME280;6627;50.920;12.050;2022-11-13T09:45:39;99775.28;;;9.67;62.81
13124;BME280;6627;50.920;12.050;2022-11-13T09:48:20;99753.09;;;9.70;62.30
13124;BME280;6627;50.920;12.050;2022-11-13T09:50:51;99731.16;;;9.46;62.72
13124;BME280;6627;50.920;12.050;2022-11-13T09:53:19;99750.38;;;9.55;62.73
13124;BME280;6627;50.920;12.050;2022-11-13T09:56:03;99743.59;;;9.42;63.86
13124;BME280;6627;50.920;12.050;2022-11-13T09:58:48;99785.56;;;9.91;63.55
13124;BME280;6627;50.920;12.050;2022-11-13T10:01:26;99699.47;;;9.06;64.28
13124;BME280;6627;50.920;12.050;2022-11-13T10:04:04;99702.69;;;8.98;65.15
13124;BME280;6627;50.920;12.050;2022-11-13T10:06:52;99689.16;;;8.82;65.90
13124;BME280;6627;50.920;12.050;2022-11-13T10:09:35;99711.88;;;8.97;66.39
13124;BME280;6627;50.920;12.050;2022-11-13T10:12:07;99724.88;;;9.10;66.62
13124;BME280;6627;50.920;12.050;2022-11-13T10:14:40;99736.84;;;9.45;66.02
13124;BME280;6627;50.920;12.050;2022-11-13T10:17:17;99718.16;;;9.28;66.61
13124;BME280;6627;50.920;12.050;2022-11-13T10:19:55;99676.81;;;9.12;66.15
13124;BME280;6627;50.920;12.050;2022-11-13T10:22:32;99685.16;;;9.10;67.27
13124;BME280;6627;50.920;12.050;2022-11-13T10:25:14;99619.44;;;8.69;67.06
13124;BME280;6627;50.920;12.050;2022-11-13T10:27:48;99638.38;;;8.84;67.65
13124;BME280;6627;50.920;12.050;2022-11-13T10:30:18;99697.34;;;9.28;68.54
13124;BME280;6627;50.920;12.050;2022-11-13T10:32:47;99655.94;;;8.92;68.94
13124;BME280;6627;50.920;12.050;2022-11-13T10:35:45;99689.53;;;9.37;68.73
13124;BME280;6627;50.920;12.050;2022-11-13T10:38:24;99696.03;;;9.62;68.48
13124;BME280;6627;50.920;12.050;2022-11-13T10:40:51;99672.50;;;9.37;68.51
13124;BME280;6627;50.920;12.050;2022-11-13T10:43:30;99658.44;;;9.40;68.67
13124;BME280;6627;50.920;12.050;2022-11-13T10:46:01;99646.53;;;9.35;68.45
13124;BME280;6627;50.920;12.050;2022-11-13T10:48:31;99601.13;;;8.92;68.74
13124;BME280;6627;50.920;12.050;2022-11-13T10:51:03;99660.59;;;9.53;68.60
13124;BME280;6627;50.920;12.050;2022-11-13T10:53:38;99644.91;;;9.65;68.16
13124;BME280;6627;50.920;12.050;2022-11-13T10:56:21;99681.63;;;10.07;68.13
13124;BME280;6627;50.920;12.050;2022-11-13T10:59:10;99632.44;;;9.69;67.23
13124;BME280;6627;50.920;12.050;2022-11-13T11:01:39;99663.78;;;10.06;67.56
13124;BME280;6627;50.920;12.050;2022-11-13T11:04:12;99613.50;;;9.69;67.65
13124;BME280;6627;50.920;12.050;2022-11-13T11:06:41;99639.97;;;10.03;67.40
13124;BME280;6627;50.920;12.050;2022-11-13T11:09:19;99621.06;;;9.93;67.48
13124;BME280;6627;50.920;12.050;2022-11-13T11:12:00;99601.06;;;9.73;67.74
13124;BME280;6627;50.920;12.050;2022-11-13T11:15:14;99625.88;;;10.06;67.27
13124;BME280;6627;50.920;12.050;2022-11-13T11:17:48;99589.69;;;9.76;67.33
13124;BME280;6627;50.920;12.050;2022-11-13T11:20:42;99616.97;;;10.05;67.43
13124;BME280;6627;50.920;12.050;2022-11-13T11:23:22;99544.91;;;9.24;67.76
13124;BME280;6627;50.920;12.050;2022-11-13T11:25:57;99582.19;;;9.32;68.61
13124;BME280;6627;50.920;12.050;2022-11-13T11:28:32;99586.47;;;9.69;68.80
13124;BME280;6627;50.920;12.050;2022-11-13T11:31:14;99631.78;;;10.33;67.83
13124;BME280;6627;50.920;12.050;2022-11-13T11:33:53;99544.00;;;9.65;67.55
13124;BME280;6627;50.920;12.050;2022-11-13T11:36:28;99537.34;;;9.01;69.07
13124;BME280;6627;50.920;12.050;2022-11-13T11:39:05;99563.28;;;9.27;70.05
13124;BME280;6627;50.920;12.050;2022-11-13T11:41:45;99595.56;;;10.04;69.12
13124;BME280;6627;50.920;12.050;2022-11-13T11:44:24;99566.94;;;9.93;67.99
13124;BME280;6627;50.920;12.050;2022-11-13T11:46:56;99565.91;;;9.78;68.14
13124;BME280;6627;50.920;12.050;2022-11-13T11:49:25;99530.22;;;9.71;68.08
13124;BME280;6627;50.920;12.050;2022-11-13T11:52:07;99602.81;;;10.29;67.97
13124;BME280;6627;50.920;12.050;2022-11-13T11:54:41;99583.03;;;10.33;67.40
13124;BME280;6627;50.920;12.050;2022-11-13T11:57:36;99557.72;;;9.94;67.19
13124;BME280;6627;50.920;12.050;2022-11-13T12:00:10;99595.53;;;10.19;67.95
13124;BME280;6627;50.920;12.050;2022-11-13T12:06:05;99610.69;;;10.15;68.66
13124;BME280;6627;50.920;12.050;2022-11-13T12:08:44;99601.47;;;10.31;67.52
13124;BME280;6627;50.920;12.050;2022-11-13T12:11:23;99569.13;;;9.80;67.98
13124;BME280;6627;50.920;12.050;2022-11-13T12:14:06;99588.63;;;9.77;68.66
13124;BME280;6627;50.920;12.050;2022-11-13T12:16:47;99548.66;;;9.54;69.01
13124;BME280;6627;50.920;12.050;2022-11-13T12:19:29;99564.53;;;9.81;69.05
13124;BME280;6627;50.920;12.050;2022-11-13T12:22:11;99534.59;;;9.52;69.02
13124;BME280;6627;50.920;12.050;2022-11-13T12:24:55;99539.66;;;9.69;68.64
13124;BME280;6627;50.920;12.050;2022-11-13T12:27:37;99558.53;;;9.94;68.45
13124;BME280;6627;50.920;12.050;2022-11-13T12:30:13;99606.22;;;10.55;68.65
13124;BME280;6627;50.920;12.050;2022-11-13T12:33:05;99577.06;;;10.37;68.77
13124;BME280;6627;50.920;12.050;2022-11-13T12:35:38;99560.34;;;10.24;68.30
13124;BME280;6627;50.920;12.050;2022-11-13T12:38:20;99586.16;;;10.56;67.70
13124;BME280;6627;50.920;12.050;2022-11-13T12:41:06;99600.25;;;11.02;66.55
13124;BME280;6627;50.920;12.050;2022-11-13T12:44:02;99553.13;;;10.59;66.95
13124;BME280;6627;50.920;12.050;2022-11-13T12:46:36;99572.41;;;10.47;67.45
13124;BME280;6627;50.920;12.050;2022-11-13T12:49:25;99589.19;;;10.89;67.08
13124;BME280;6627;50.920;12.050;2022-11-13T12:51:57;99585.66;;;10.54;67.67
13124;BME280;6627;50.920;12.050;2022-11-13T12:54:30;99623.16;;;11.20;67.49
13124;BME280;6627;50.920;12.050;2022-11-13T12:57:20;99592.91;;;11.03;66.85
13124;BME280;6627;50.920;12.050;2022-11-13T12:59:51;99576.19;;;10.91;66.90
13124;BME280;6627;50.920;12.050;2022-11-13T13:02:38;99591.97;;;11.18;66.52
13124;BME280;6627;50.920;12.050;2022-11-13T13:08:39;99548.97;;;10.72;66.39
13124;BME280;6627;50.920;12.050;2022-11-13T13:11:17;99592.28;;;11.11;66.63
13124;BME280;6627;50.920;12.050;2022-11-13T13:14:03;99565.22;;;10.67;67.11
13124;BME280;6627;50.920;12.050;2022-11-13T13:16:34;99641.75;;;11.66;65.79
13124;BME280;6627;50.920;12.050;2022-11-13T13:19:06;99580.13;;;11.37;64.51
13124;BME280;6627;50.920;12.050;2022-11-13T13:21:42;99542.78;;;11.00;64.75
13124;BME280;6627;50.920;12.050;2022-11-13T13:24:31;99573.47;;;11.54;63.76
13124;BME280;6627;50.920;12.050;2022-11-13T13:27:00;99585.09;;;11.89;62.53
13124;BME280;6627;50.920;12.050;2022-11-13T13:29:29;99484.69;;;10.77;63.00
13124;BME280;6627;50.920;12.050;2022-11-13T13:32:09;99518.91;;;10.68;64.43
13124;BME280;6627;50.920;12.050;2022-11-13T13:34:54;99508.28;;;11.06;63.46
13124;BME280;6627;50.920;12.050;2022-11-13T13:37:35;99506.78;;;10.95;63.20
13124;BME280;6627;50.920;12.050;2022-11-13T13:40:23;99511.81;;;10.77;63.85